Terminal Aerodrome Forecast
Issued by NWS

Home | Current Version | Previous Version | Graphics & Text | Print | Product List | Glossary On
Versions: 1 2 3 4 5 6 7 8 9 10 11 12 13 14 15 16 17 18 19 20 21 22 23 24 25 26 27 28 29 30 31 32 33 34 35 36
000
FTUS43 KPAH 270500
TAFOWB
TAF
KOWB 270539Z 2706/2806 VRB04KT 4SM -SN BR OVC004
      TEMPO 2706/2709 2SM -SN BR OVC010
     FM270900 33005KT 5SM BR OVC015
     FM271200 33008KT P6SM OVC020
     FM272000 31009KT P6SM SCT020=

USA.gov is the U.S. government's official web portal to all federal, state and local government web resources and services.